sensor_id;sensor_type;location;lat;lon;timestamp;pressure;altitude;pressure_sealevel;temperature;humidity
74542;BME280;63015;45.378;20.360;2024-03-07T00:01:29;100420.00;;;8.17;nan
74542;BME280;63015;45.378;20.360;2024-03-07T00:03:32;100417.41;;;8.17;nan
74542;BME280;63015;45.378;20.360;2024-03-07T00:05:32;100415.72;;;8.21;nan
74542;BME280;63015;45.378;20.360;2024-03-07T00:07:33;100426.13;;;8.22;nan
74542;BME280;63015;45.378;20.360;2024-03-07T00:09:34;100416.56;;;8.17;nan
74542;BME280;63015;45.378;20.360;2024-03-07T00:11:35;100425.28;;;8.27;nan
74542;BME280;63015;45.378;20.360;2024-03-07T00:13:35;100425.28;;;8.27;nan
74542;BME280;63015;45.378;20.360;2024-03-07T00:15:36;100421.81;;;8.26;nan
74542;BME280;63015;45.378;20.360;2024-03-07T00:17:37;100427.00;;;8.26;nan
74542;BME280;63015;45.378;20.360;2024-03-07T00:19:38;100414.88;;;8.23;nan
74542;BME280;63015;45.378;20.360;2024-03-07T00:21:39;100427.94;;;8.33;nan
74542;BME280;63015;45.378;20.360;2024-03-07T00:23:40;100423.56;;;8.29;nan
74542;BME280;63015;45.378;20.360;2024-03-07T00:25:40;100430.47;;;8.25;nan
74542;BME280;63015;45.378;20.360;2024-03-07T00:27:41;100426.19;;;8.32;nan
74542;BME280;63015;45.378;20.360;2024-03-07T00:29:41;100425.34;;;8.33;nan
74542;BME280;63015;45.378;20.360;2024-03-07T00:31:42;100415.81;;;8.32;nan
74542;BME280;63015;45.378;20.360;2024-03-07T00:33:44;100421.03;;;8.35;nan
74542;BME280;63015;45.378;20.360;2024-03-07T00:35:45;100427.06;;;8.31;nan
74542;BME280;63015;45.378;20.360;2024-03-07T00:37:45;100414.03;;;8.25;nan
74542;BME280;63015;45.378;20.360;2024-03-07T00:39:45;100416.63;;;8.25;nan
74542;BME280;63015;45.378;20.360;2024-03-07T00:41:46;100407.91;;;8.18;nan
74542;BME280;63015;45.378;20.360;2024-03-07T00:43:47;100415.72;;;8.19;nan
74542;BME280;63015;45.378;20.360;2024-03-07T00:45:47;100406.16;;;8.15;nan
74542;BME280;63015;45.378;20.360;2024-03-07T00:47:50;100413.06;;;8.16;nan
74542;BME280;63015;45.378;20.360;2024-03-07T00:49:50;100420.00;;;8.14;nan
74542;BME280;63015;45.378;20.360;2024-03-07T00:51:51;100419.16;;;8.17;nan
74542;BME280;63015;45.378;20.360;2024-03-07T00:53:51;100420.00;;;8.17;nan
74542;BME280;63015;45.378;20.360;2024-03-07T00:55:52;100430.44;;;8.20;nan
74542;BME280;63015;45.378;20.360;2024-03-07T00:57:53;100447.72;;;8.20;nan
74542;BME280;63015;45.378;20.360;2024-03-07T00:59:54;100452.13;;;8.29;nan
74542;BME280;63015;45.378;20.360;2024-03-07T01:01:54;100449.47;;;8.22;nan
74542;BME280;63015;45.378;20.360;2024-03-07T01:03:55;100436.50;;;8.24;nan
74542;BME280;63015;45.378;20.360;2024-03-07T01:05:55;100438.19;;;8.17;nan
74542;BME280;63015;45.378;20.360;2024-03-07T01:07:56;100442.53;;;8.21;nan
74542;BME280;63015;45.378;20.360;2024-03-07T01:09:56;100443.50;;;8.33;nan
74542;BME280;63015;45.378;20.360;2024-03-07T01:12:01;100446.16;;;8.37;nan
74542;BME280;63015;45.378;20.360;2024-03-07T01:14:04;100438.31;;;8.34;nan
74542;BME280;63015;45.378;20.360;2024-03-07T01:16:05;100424.41;;;8.25;nan
74542;BME280;63015;45.378;20.360;2024-03-07T01:18:06;100442.66;;;8.32;nan
74542;BME280;63015;45.378;20.360;2024-03-07T01:20:07;100434.84;;;8.31;nan
74542;BME280;63015;45.378;20.360;2024-03-07T01:22:09;100440.06;;;8.37;nan
74542;BME280;63015;45.378;20.360;2024-03-07T01:24:09;100436.63;;;8.36;nan
74542;BME280;63015;45.378;20.360;2024-03-07T01:26:10;100435.81;;;8.44;nan
74542;BME280;63015;45.378;20.360;2024-03-07T01:28:10;100429.81;;;8.46;nan
74542;BME280;63015;45.378;20.360;2024-03-07T01:30:12;100421.94;;;8.40;nan
74542;BME280;63015;45.378;20.360;2024-03-07T01:32:13;100434.13;;;8.46;nan
74542;BME280;63015;45.378;20.360;2024-03-07T01:34:13;100429.84;;;8.52;nan
74542;BME280;63015;45.378;20.360;2024-03-07T01:36:14;100435.13;;;8.62;nan
74542;BME280;63015;45.378;20.360;2024-03-07T01:38:15;100433.34;;;8.56;nan
74542;BME280;63015;45.378;20.360;2024-03-07T01:40:16;100428.19;;;8.59;nan
74542;BME280;63015;45.378;20.360;2024-03-07T01:42:16;100425.50;;;8.48;nan
74542;BME280;63015;45.378;20.360;2024-03-07T01:44:17;100435.94;;;8.51;nan
74542;BME280;63015;45.378;20.360;2024-03-07T01:46:17;100427.25;;;8.52;nan
74542;BME280;63015;45.378;20.360;2024-03-07T01:48:25;100425.53;;;8.54;nan
74542;BME280;63015;45.378;20.360;2024-03-07T01:50:26;100422.06;;;8.52;nan
74542;BME280;63015;45.378;20.360;2024-03-07T01:52:27;100431.63;;;8.57;nan
74542;BME280;63015;45.378;20.360;2024-03-07T01:54:27;100421.19;;;8.50;nan
74542;BME280;63015;45.378;20.360;2024-03-07T01:56:28;100420.28;;;8.47;nan
74542;BME280;63015;45.378;20.360;2024-03-07T01:58:30;100418.44;;;8.36;nan
74542;BME280;63015;45.378;20.360;2024-03-07T02:00:31;100422.84;;;8.44;nan
74542;BME280;63015;45.378;20.360;2024-03-07T02:02:33;100418.50;;;8.44;nan
74542;BME280;63015;45.378;20.360;2024-03-07T02:04:34;100410.66;;;8.38;nan
74542;BME280;63015;45.378;20.360;2024-03-07T02:06:34;100411.56;;;8.42;nan
74542;BME280;63015;45.378;20.360;2024-03-07T02:08:35;100409.75;;;8.33;nan
74542;BME280;63015;45.378;20.360;2024-03-07T02:10:35;100406.28;;;8.31;nan
74542;BME280;63015;45.378;20.360;2024-03-07T02:12:36;100408.78;;;8.21;nan
74542;BME280;63015;45.378;20.360;2024-03-07T02:14:36;100405.41;;;8.30;nan
74542;BME280;63015;45.378;20.360;2024-03-07T02:16:37;100387.16;;;8.21;nan
74542;BME280;63015;45.378;20.360;2024-03-07T02:18:37;100408.00;;;8.27;nan
74542;BME280;63015;45.378;20.360;2024-03-07T02:20:43;100411.50;;;8.32;nan
74542;BME280;63015;45.378;20.360;2024-03-07T02:22:44;100409.75;;;8.28;nan
74542;BME280;63015;45.378;20.360;2024-03-07T02:24:44;100409.69;;;8.27;nan
74542;BME280;63015;45.378;20.360;2024-03-07T02:26:45;100414.09;;;8.32;nan
74542;BME280;63015;45.378;20.360;2024-03-07T02:28:46;100421.00;;;8.30;nan
74542;BME280;63015;45.378;20.360;2024-03-07T02:30:46;100416.69;;;8.32;nan
74542;BME280;63015;45.378;20.360;2024-03-07T02:32:47;100413.19;;;8.30;nan
74542;BME280;63015;45.378;20.360;2024-03-07T02:34:52;100414.91;;;8.27;nan
74542;BME280;63015;45.378;20.360;2024-03-07T02:36:52;100407.09;;;8.25;nan
74542;BME280;63015;45.378;20.360;2024-03-07T02:38:53;100411.38;;;8.20;nan
74542;BME280;63015;45.378;20.360;2024-03-07T02:40:54;100404.47;;;8.20;nan
74542;BME280;63015;45.378;20.360;2024-03-07T02:42:55;100403.53;;;8.14;nan
74542;BME280;63015;45.378;20.360;2024-03-07T02:44:55;100407.91;;;8.18;nan
74542;BME280;63015;45.378;20.360;2024-03-07T02:46:56;100407.94;;;8.19;nan
74542;BME280;63015;45.378;20.360;2024-03-07T02:48:57;100405.28;;;8.16;nan
74542;BME280;63015;45.378;20.360;2024-03-07T02:50:57;100404.44;;;8.16;nan
74542;BME280;63015;45.378;20.360;2024-03-07T02:52:57;100413.84;;;8.06;nan
74542;BME280;63015;45.378;20.360;2024-03-07T02:54:58;100404.38;;;8.10;nan
74542;BME280;63015;45.378;20.360;2024-03-07T02:56:58;100401.75;;;8.05;nan
74542;BME280;63015;45.378;20.360;2024-03-07T02:58:59;100397.41;;;8.05;nan
74542;BME280;63015;45.378;20.360;2024-03-07T03:01:00;100402.59;;;8.05;nan
74542;BME280;63015;45.378;20.360;2024-03-07T03:03:00;100394.78;;;8.01;nan
74542;BME280;63015;45.378;20.360;2024-03-07T03:05:01;100386.13;;;8.00;nan
74542;BME280;63015;45.378;20.360;2024-03-07T03:07:01;100381.84;;;8.02;nan
74542;BME280;63015;45.378;20.360;2024-03-07T03:09:02;100384.38;;;8.01;nan
74542;BME280;63015;45.378;20.360;2024-03-07T03:11:05;100383.47;;;7.96;nan
74542;BME280;63015;45.378;20.360;2024-03-07T03:13:05;100384.44;;;8.02;nan
74542;BME280;63015;45.378;20.360;2024-03-07T03:15:07;100383.53;;;8.00;nan
74542;BME280;63015;45.378;20.360;2024-03-07T03:17:07;100384.38;;;7.99;nan
74542;BME280;63015;45.378;20.360;2024-03-07T03:19:10;100388.66;;;7.94;nan
74542;BME280;63015;45.378;20.360;2024-03-07T03:21:10;100398.19;;;7.95;nan
74542;BME280;63015;45.378;20.360;2024-03-07T03:23:11;100390.41;;;7.97;nan
74542;BME280;63015;45.378;20.360;2024-03-07T03:25:13;100397.34;;;7.96;nan
74542;BME280;63015;45.378;20.360;2024-03-07T03:27:14;100390.47;;;8.00;nan
74542;BME280;63015;45.378;20.360;2024-03-07T03:29:14;100384.44;;;8.02;nan
74542;BME280;63015;45.378;20.360;2024-03-07T03:31:16;100395.69;;;8.04;nan
74542;BME280;63015;45.378;20.360;2024-03-07T03:33:17;100398.28;;;8.04;nan
74542;BME280;63015;45.378;20.360;2024-03-07T03:35:18;100385.28;;;8.00;nan
74542;BME280;63015;45.378;20.360;2024-03-07T03:37:19;100384.28;;;7.88;nan
74542;BME280;63015;45.378;20.360;2024-03-07T03:39:20;100385.28;;;8.00;nan
74542;BME280;63015;45.378;20.360;2024-03-07T03:41:21;100386.97;;;7.99;nan
74542;BME280;63015;45.378;20.360;2024-03-07T03:43:21;100387.81;;;7.97;nan
74542;BME280;63015;45.378;20.360;2024-03-07T03:45:21;100392.16;;;7.98;nan
74542;BME280;63015;45.378;20.360;2024-03-07T03:47:22;100390.47;;;8.00;nan
74542;BME280;63015;45.378;20.360;2024-03-07T03:49:22;100383.47;;;7.94;nan
74542;BME280;63015;45.378;20.360;2024-03-07T03:51:23;100382.69;;;8.03;nan
74542;BME280;63015;45.378;20.360;2024-03-07T03:53:25;100384.38;;;7.99;nan
74542;BME280;63015;45.378;20.360;2024-03-07T03:55:25;100381.72;;;7.90;nan
74542;BME280;63015;45.378;20.360;2024-03-07T03:57:27;100390.47;;;8.00;nan
74542;BME280;63015;45.378;20.360;2024-03-07T03:59:27;100400.81;;;7.98;nan
74542;BME280;63015;45.378;20.360;2024-03-07T04:01:28;100400.78;;;7.94;nan
74542;BME280;63015;45.378;20.360;2024-03-07T04:03:28;100400.81;;;7.98;nan
74542;BME280;63015;45.378;20.360;2024-03-07T04:05:30;100399.88;;;7.93;nan
74542;BME280;63015;45.378;20.360;2024-03-07T04:07:31;100405.06;;;7.93;nan
74542;BME280;63015;45.378;20.360;2024-03-07T04:09:32;100411.09;;;7.90;nan
74542;BME280;63015;45.378;20.360;2024-03-07T04:11:32;100418.06;;;7.93;nan
74542;BME280;63015;45.378;20.360;2024-03-07T04:13:33;100420.66;;;7.93;nan
74542;BME280;63015;45.378;20.360;2024-03-07T04:15:34;100421.56;;;7.97;nan
74542;BME280;63015;45.378;20.360;2024-03-07T04:17:35;100420.63;;;7.92;nan
74542;BME280;63015;45.378;20.360;2024-03-07T04:19:36;100420.56;;;7.85;nan
74542;BME280;63015;45.378;20.360;2024-03-07T04:21:36;100422.31;;;7.88;nan
74542;BME280;63015;45.378;20.360;2024-03-07T04:23:40;100428.34;;;7.85;nan
74542;BME280;63015;45.378;20.360;2024-03-07T04:25:40;100424.91;;;7.83;nan
74542;BME280;63015;45.378;20.360;2024-03-07T04:27:41;100432.72;;;7.89;nan
74542;BME280;63015;45.378;20.360;2024-03-07T04:29:42;100427.50;;;7.88;nan
74542;BME280;63015;45.378;20.360;2024-03-07T04:31:42;100429.25;;;7.87;nan
74542;BME280;63015;45.378;20.360;2024-03-07T04:33:44;100437.91;;;7.89;nan
74542;BME280;63015;45.378;20.360;2024-03-07T04:35:44;100437.03;;;7.87;nan
74542;BME280;63015;45.378;20.360;2024-03-07T04:37:45;100429.16;;;7.78;nan
74542;BME280;63015;45.378;20.360;2024-03-07T04:39:45;100424.84;;;7.79;nan
74542;BME280;63015;45.378;20.360;2024-03-07T04:41:46;100443.06;;;7.83;nan
74542;BME280;63015;45.378;20.360;2024-03-07T04:43:47;100442.09;;;7.77;nan
74542;BME280;63015;45.378;20.360;2024-03-07T04:45:48;100439.50;;;7.75;nan
74542;BME280;63015;45.378;20.360;2024-03-07T04:47:49;100437.72;;;7.69;nan
74542;BME280;63015;45.378;20.360;2024-03-07T04:49:49;100442.06;;;7.70;nan
74542;BME280;63015;45.378;20.360;2024-03-07T04:51:55;100436.81;;;7.66;nan
74542;BME280;63015;45.378;20.360;2024-03-07T04:53:56;100454.03;;;7.62;nan
74542;BME280;63015;45.378;20.360;2024-03-07T04:55:56;100448.00;;;7.62;nan
74542;BME280;63015;45.378;20.360;2024-03-07T04:57:57;100450.63;;;7.65;nan
74542;BME280;63015;45.378;20.360;2024-03-07T04:59:57;100451.44;;;7.61;nan
74542;BME280;63015;45.378;20.360;2024-03-07T05:01:58;100452.28;;;7.61;nan
74542;BME280;63015;45.378;20.360;2024-03-07T05:03:58;100450.53;;;7.58;nan
74542;BME280;63015;45.378;20.360;2024-03-07T05:05:59;100453.03;;;7.49;nan
74542;BME280;63015;45.378;20.360;2024-03-07T05:08:00;100455.72;;;7.58;nan
74542;BME280;63015;45.378;20.360;2024-03-07T05:10:05;100458.28;;;7.55;nan
74542;BME280;63015;45.378;20.360;2024-03-07T05:12:06;100426.97;;;7.38;nan
74542;BME280;63015;45.378;20.360;2024-03-07T05:14:06;100445.34;;;7.58;nan
74542;BME280;63015;45.378;20.360;2024-03-07T05:16:07;100448.75;;;7.51;nan
74542;BME280;63015;45.378;20.360;2024-03-07T05:18:07;100463.47;;;7.55;nan
74542;BME280;63015;45.378;20.360;2024-03-07T05:20:08;100450.44;;;7.51;nan
74542;BME280;63015;45.378;20.360;2024-03-07T05:22:12;100459.13;;;7.51;nan
74542;BME280;63015;45.378;20.360;2024-03-07T05:24:16;100464.34;;;7.56;nan
74542;BME280;63015;45.378;20.360;2024-03-07T05:26:17;100471.28;;;7.57;nan
74542;BME280;63015;45.378;20.360;2024-03-07T05:28:18;100469.59;;;7.59;nan
74542;BME280;63015;45.378;20.360;2024-03-07T05:30:19;100460.91;;;7.57;nan
74542;BME280;63015;45.378;20.360;2024-03-07T05:32:24;100470.44;;;7.60;nan
74542;BME280;63015;45.378;20.360;2024-03-07T05:34:25;100473.03;;;7.58;nan
74542;BME280;63015;45.378;20.360;2024-03-07T05:36:28;100467.81;;;7.55;nan
74542;BME280;63015;45.378;20.360;2024-03-07T05:38:28;100469.47;;;7.50;nan
74542;BME280;63015;45.378;20.360;2024-03-07T05:40:29;100472.09;;;7.53;nan
74542;BME280;63015;45.378;20.360;2024-03-07T05:42:29;100466.06;;;7.55;nan
74542;BME280;63015;45.378;20.360;2024-03-07T05:44:31;100462.53;;;7.49;nan
74542;BME280;63015;45.378;20.360;2024-03-07T05:46:32;100466.06;;;7.54;nan
74542;BME280;63015;45.378;20.360;2024-03-07T05:48:33;100478.19;;;7.56;nan
74542;BME280;63015;45.378;20.360;2024-03-07T05:50:33;100481.56;;;7.49;nan
74542;BME280;63015;45.378;20.360;2024-03-07T05:52:34;100489.34;;;7.51;nan
74542;BME280;63015;45.378;20.360;2024-03-07T05:54:35;100485.00;;;7.48;nan
74542;BME280;63015;45.378;20.360;2024-03-07T05:56:36;100488.47;;;7.49;nan
74542;BME280;63015;45.378;20.360;2024-03-07T05:58:37;100486.75;;;7.51;nan
74542;BME280;63015;45.378;20.360;2024-03-07T06:00:37;100493.69;;;7.52;nan
74542;BME280;63015;45.378;20.360;2024-03-07T06:02:39;100490.22;;;7.50;nan
74542;BME280;63015;45.378;20.360;2024-03-07T06:04:39;100491.00;;;7.44;nan
74542;BME280;63015;45.378;20.360;2024-03-07T06:06:40;100498.75;;;7.43;nan
74542;BME280;63015;45.378;20.360;2024-03-07T06:08:41;100495.31;;;7.44;nan
74542;BME280;63015;45.378;20.360;2024-03-07T06:10:44;100505.63;;;7.39;nan
74542;BME280;63015;45.378;20.360;2024-03-07T06:12:45;100505.63;;;7.39;nan
74542;BME280;63015;45.378;20.360;2024-03-07T06:14:46;100499.47;;;7.31;nan
74542;BME280;63015;45.378;20.360;2024-03-07T06:16:47;100507.19;;;7.28;nan
74542;BME280;63015;45.378;20.360;2024-03-07T06:18:48;100507.22;;;7.29;nan
74542;BME280;63015;45.378;20.360;2024-03-07T06:20:48;100506.25;;;7.21;nan
74542;BME280;63015;45.378;20.360;2024-03-07T06:22:49;100514.06;;;7.24;nan
74542;BME280;63015;45.378;20.360;2024-03-07T06:24:52;100512.38;;;7.28;nan
74542;BME280;63015;45.378;20.360;2024-03-07T06:26:53;100506.13;;;7.13;nan
74542;BME280;63015;45.378;20.360;2024-03-07T06:29:04;100508.78;;;7.16;nan
74542;BME280;63015;45.378;20.360;2024-03-07T06:31:08;100507.78;;;7.08;nan
74542;BME280;63015;45.378;20.360;2024-03-07T06:33:09;100514.72;;;7.11;nan
74542;BME280;63015;45.378;20.360;2024-03-07T06:35:13;100520.75;;;7.10;nan
74542;BME280;63015;45.378;20.360;2024-03-07T06:37:13;100522.38;;;7.01;nan
74542;BME280;63015;45.378;20.360;2024-03-07T06:39:33;100519.78;;;7.01;83.71
74542;BME280;63015;45.378;20.360;2024-03-07T06:41:35;100524.06;;;6.99;83.06
74542;BME280;63015;45.378;20.360;2024-03-07T06:43:35;100529.16;;;6.93;81.54
74542;BME280;63015;45.378;20.360;2024-03-07T06:45:36;100531.72;;;6.91;81.89
74542;BME280;63015;45.378;20.360;2024-03-07T06:47:37;100529.06;;;6.87;82.69
74542;BME280;63015;45.378;20.360;2024-03-07T06:49:37;100537.72;;;6.89;82.97
74542;BME280;63015;45.378;20.360;2024-03-07T06:51:40;100534.28;;;6.90;83.66
74542;BME280;63015;45.378;20.360;2024-03-07T06:53:40;100526.41;;;6.84;83.48
74542;BME280;63015;45.378;20.360;2024-03-07T06:55:41;100546.31;;;6.86;84.22
74542;BME280;63015;45.378;20.360;2024-03-07T06:57:41;100547.13;;;6.84;84.44
74542;BME280;63015;45.378;20.360;2024-03-07T06:59:42;100552.38;;;6.87;84.45
74542;BME280;63015;45.378;20.360;2024-03-07T07:01:43;100547.22;;;6.88;84.73
74542;BME280;63015;45.378;20.360;2024-03-07T07:03:43;100542.84;;;6.84;84.98
74542;BME280;63015;45.378;20.360;2024-03-07T07:05:44;100548.00;;;6.83;84.51
74542;BME280;63015;45.378;20.360;2024-03-07T07:07:45;100547.06;;;6.78;84.53
74542;BME280;63015;45.378;20.360;2024-03-07T07:09:45;100548.84;;;6.82;84.10
74542;BME280;63015;45.378;20.360;2024-03-07T07:11:46;100554.06;;;6.85;84.27
74542;BME280;63015;45.378;20.360;2024-03-07T07:13:47;100554.97;;;6.87;83.69
74542;BME280;63015;45.378;20.360;2024-03-07T07:15:51;100554.06;;;6.85;83.97
74542;BME280;63015;45.378;20.360;2024-03-07T07:17:52;100552.38;;;6.85;84.18
74542;BME280;63015;45.378;20.360;2024-03-07T07:19:52;100557.56;;;6.87;84.68
74542;BME280;63015;45.378;20.360;2024-03-07T07:21:53;100564.38;;;6.80;85.11
74542;BME280;63015;45.378;20.360;2024-03-07T07:23:54;100560.94;;;6.83;85.12
74542;BME280;63015;45.378;20.360;2024-03-07T07:25:54;100562.75;;;6.87;84.77
74542;BME280;63015;45.378;20.360;2024-03-07T07:27:55;100559.19;;;6.80;85.29
74542;BME280;63015;45.378;20.360;2024-03-07T07:29:56;100559.25;;;6.86;84.63
74542;BME280;63015;45.378;20.360;2024-03-07T07:31:57;100570.50;;;6.85;83.75
74542;BME280;63015;45.378;20.360;2024-03-07T07:33:58;100569.56;;;6.82;83.73
74542;BME280;63015;45.378;20.360;2024-03-07T07:35:58;100570.31;;;6.76;84.73
74542;BME280;63015;45.378;20.360;2024-03-07T07:37:59;100574.66;;;6.79;84.25
74542;BME280;63015;45.378;20.360;2024-03-07T07:40:00;100573.84;;;6.80;83.87
74542;BME280;63015;45.378;20.360;2024-03-07T07:42:00;100566.00;;;6.75;83.77
74542;BME280;63015;45.378;20.360;2024-03-07T07:44:01;100571.19;;;6.75;84.04
74542;BME280;63015;45.378;20.360;2024-03-07T07:46:01;100579.00;;;6.78;84.62
74542;BME280;63015;45.378;20.360;2024-03-07T07:48:02;100586.66;;;6.72;85.35
74542;BME280;63015;45.378;20.360;2024-03-07T07:50:03;100590.25;;;6.80;84.65
74542;BME280;63015;45.378;20.360;2024-03-07T07:52:07;100592.06;;;6.86;83.93
74542;BME280;63015;45.378;20.360;2024-03-07T07:54:08;100567.78;;;6.79;84.02
74542;BME280;63015;45.378;20.360;2024-03-07T07:56:11;100588.66;;;6.87;84.83
74542;BME280;63015;45.378;20.360;2024-03-07T07:58:12;100580.03;;;6.88;85.00
74542;BME280;63015;45.378;20.360;2024-03-07T08:00:14;100587.06;;;6.97;84.72
74542;BME280;63015;45.378;20.360;2024-03-07T08:02:21;100584.41;;;6.90;84.43
74542;BME280;63015;45.378;20.360;2024-03-07T08:04:22;100590.44;;;6.91;84.30
74542;BME280;63015;45.378;20.360;2024-03-07T08:06:23;100585.38;;;6.97;84.00
74542;BME280;63015;45.378;20.360;2024-03-07T08:08:24;100587.97;;;6.99;84.23
74542;BME280;63015;45.378;20.360;2024-03-07T08:10:27;100592.31;;;7.00;83.58
74542;BME280;63015;45.378;20.360;2024-03-07T08:12:30;100591.66;;;7.13;84.05
74542;BME280;63015;45.378;20.360;2024-03-07T08:14:31;100594.31;;;7.16;84.26
74542;BME280;63015;45.378;20.360;2024-03-07T08:16:31;100588.19;;;7.13;83.61
74542;BME280;63015;45.378;20.360;2024-03-07T08:18:32;100589.16;;;7.19;82.88
74542;BME280;63015;45.378;20.360;2024-03-07T08:20:32;100595.28;;;7.23;83.57
74542;BME280;63015;45.378;20.360;2024-03-07T08:22:33;100596.13;;;7.22;82.69
74542;BME280;63015;45.378;20.360;2024-03-07T08:24:34;100592.53;;;7.14;82.56
74542;BME280;63015;45.378;20.360;2024-03-07T08:26:35;100603.75;;;7.13;82.18
74542;BME280;63015;45.378;20.360;2024-03-07T08:28:35;100601.91;;;7.07;82.38
74542;BME280;63015;45.378;20.360;2024-03-07T08:30:36;100613.22;;;7.11;82.55
74542;BME280;63015;45.378;20.360;2024-03-07T08:32:36;100608.78;;;7.03;82.67
74542;BME280;63015;45.378;20.360;2024-03-07T08:34:37;100614.78;;;7.01;82.07
74542;BME280;63015;45.378;20.360;2024-03-07T08:36:37;100615.56;;;6.97;81.80
74542;BME280;63015;45.378;20.360;2024-03-07T08:38:40;100612.94;;;6.94;82.10
74542;BME280;63015;45.378;20.360;2024-03-07T08:40:40;100613.66;;;6.86;81.62
74542;BME280;63015;45.378;20.360;2024-03-07T08:42:41;100616.38;;;6.93;82.28
74542;BME280;63015;45.378;20.360;2024-03-07T08:44:42;100618.84;;;6.86;81.93
74542;BME280;63015;45.378;20.360;2024-03-07T08:46:43;100615.34;;;6.83;81.68
74542;BME280;63015;45.378;20.360;2024-03-07T08:48:44;100623.16;;;6.84;81.67
74542;BME280;63015;45.378;20.360;2024-03-07T08:50:44;100621.44;;;6.86;81.79
74542;BME280;63015;45.378;20.360;2024-03-07T08:52:46;100622.22;;;6.82;82.03
74542;BME280;63015;45.378;20.360;2024-03-07T08:54:48;100616.91;;;6.74;82.01
74542;BME280;63015;45.378;20.360;2024-03-07T08:56:48;100623.72;;;6.68;81.08
74542;BME280;63015;45.378;20.360;2024-03-07T08:58:49;100627.28;;;6.74;81.73
74542;BME280;63015;45.378;20.360;2024-03-07T09:00:49;100623.88;;;6.79;82.89
74542;BME280;63015;45.378;20.360;2024-03-07T09:02:57;100632.56;;;6.81;83.30
74542;BME280;63015;45.378;20.360;2024-03-07T09:05:04;100622.97;;;6.75;81.69
74542;BME280;63015;45.378;20.360;2024-03-07T09:07:06;100629.06;;;6.77;82.09
74542;BME280;63015;45.378;20.360;2024-03-07T09:09:07;100635.19;;;6.82;82.56
74542;BME280;63015;45.378;20.360;2024-03-07T09:11:09;100629.88;;;6.76;82.22
74542;BME280;63015;45.378;20.360;2024-03-07T09:13:09;100630.94;;;6.86;82.36
74542;BME280;63015;45.378;20.360;2024-03-07T09:15:10;100623.88;;;6.77;82.40
74542;BME280;63015;45.378;20.360;2024-03-07T09:17:11;100636.06;;;6.83;82.54
74542;BME280;63015;45.378;20.360;2024-03-07T09:19:12;100631.66;;;6.79;82.75
74542;BME280;63015;45.378;20.360;2024-03-07T09:21:14;100633.53;;;6.87;82.66
74542;BME280;63015;45.378;20.360;2024-03-07T09:23:15;100635.34;;;6.91;83.17
74542;BME280;63015;45.378;20.360;2024-03-07T09:25:17;100637.91;;;6.90;83.00
74542;BME280;63015;45.378;20.360;2024-03-07T09:27:18;100641.34;;;6.89;83.73
74542;BME280;63015;45.378;20.360;2024-03-07T09:29:22;100644.84;;;6.91;82.40
74542;BME280;63015;45.378;20.360;2024-03-07T09:31:23;100648.41;;;6.98;81.96
74542;BME280;63015;45.378;20.360;2024-03-07T09:33:23;100648.44;;;6.99;82.48
74542;BME280;63015;45.378;20.360;2024-03-07T09:35:24;100638.00;;;6.95;82.54
74542;BME280;63015;45.378;20.360;2024-03-07T09:37:24;100646.84;;;7.07;82.91
74542;BME280;63015;45.378;20.360;2024-03-07T09:39:26;100652.16;;;7.15;82.56
74542;BME280;63015;45.378;20.360;2024-03-07T09:41:27;100654.81;;;7.18;82.31
74542;BME280;63015;45.378;20.360;2024-03-07T09:43:28;100661.06;;;7.33;82.54
74542;BME280;63015;45.378;20.360;2024-03-07T09:45:30;100652.31;;;7.23;81.78
74542;BME280;63015;45.378;20.360;2024-03-07T09:47:32;100662.69;;;7.26;82.10
74542;BME280;63015;45.378;20.360;2024-03-07T09:49:33;100656.31;;;7.05;80.61
74542;BME280;63015;45.378;20.360;2024-03-07T09:51:35;100662.38;;;7.06;79.96
74542;BME280;63015;45.378;20.360;2024-03-07T09:53:37;100671.84;;;7.04;79.87
74542;BME280;63015;45.378;20.360;2024-03-07T09:55:37;100663.09;;;6.97;79.66
74542;BME280;63015;45.378;20.360;2024-03-07T09:57:39;100670.03;;;6.98;79.98
74542;BME280;63015;45.378;20.360;2024-03-07T09:59:42;100683.13;;;7.07;81.36
74542;BME280;63015;45.378;20.360;2024-03-07T10:01:44;100665.94;;;7.11;80.64
74542;BME280;63015;45.378;20.360;2024-03-07T10:03:47;100673.63;;;7.08;80.37
74542;BME280;63015;45.378;20.360;2024-03-07T10:05:49;100677.16;;;7.12;80.33
74542;BME280;63015;45.378;20.360;2024-03-07T10:07:50;100684.91;;;7.10;81.01
74542;BME280;63015;45.378;20.360;2024-03-07T10:09:52;100677.97;;;7.07;80.64
74542;BME280;63015;45.378;20.360;2024-03-07T10:11:59;100684.94;;;7.13;80.65
74542;BME280;63015;45.378;20.360;2024-03-07T10:14:00;100684.84;;;7.07;80.40
74542;BME280;63015;45.378;20.360;2024-03-07T10:16:01;100678.00;;;7.11;80.82
74542;BME280;63015;45.378;20.360;2024-03-07T10:18:02;100684.25;;;7.22;81.18
74542;BME280;63015;45.378;20.360;2024-03-07T10:20:03;100692.94;;;7.26;81.31
74542;BME280;63015;45.378;20.360;2024-03-07T10:22:03;100686.94;;;7.27;81.45
74542;BME280;63015;45.378;20.360;2024-03-07T10:24:07;100687.81;;;7.29;80.44
74542;BME280;63015;45.378;20.360;2024-03-07T10:26:08;100688.59;;;7.24;80.73
74542;BME280;63015;45.378;20.360;2024-03-07T10:28:10;100696.50;;;7.31;80.36
74542;BME280;63015;45.378;20.360;2024-03-07T10:30:11;100689.53;;;7.28;80.60
74542;BME280;63015;45.378;20.360;2024-03-07T10:32:14;100688.69;;;7.29;80.96
74542;BME280;63015;45.378;20.360;2024-03-07T10:34:15;100698.19;;;7.30;81.66
74542;BME280;63015;45.378;20.360;2024-03-07T10:36:16;100694.69;;;7.27;81.25
74542;BME280;63015;45.378;20.360;2024-03-07T10:38:16;100697.44;;;7.34;81.21
74542;BME280;63015;45.378;20.360;2024-03-07T10:40:22;100692.16;;;7.30;81.47
74542;BME280;63015;45.378;20.360;2024-03-07T10:42:27;100704.19;;;7.28;81.69
74542;BME280;63015;45.378;20.360;2024-03-07T10:44:30;100703.44;;;7.33;82.13